Hector International Airport
KFAR : now visible

Airfield :











YOU CAN JOIN US ON...

 
LOGIN :

Register | Disclaimer

   EN    FR    IT 

 









Legend :    VFR   Marginal VFR   IFR   Intensive IFR   Very Intensive IFR
Visi :
Ceiling :
>= 8 km
>= 3000ft
5 to 8 km
1000 to 3000 ft
1500m to 5 km
500 to 1000 ft
800 to 1500m
200 to 500 ft
< 800m
< 200 ft
Symbols :   Thunderstorms  Fog  Heavy snow  Heavy precipitations  Wind > 20 kt






- Airport Elevation : 902 ft
- IATA code : FAR


KFAR - Hector International

CURRENT METAR :
  • 040853Z AUTO 22007KT 10SM CLR M14/M18 A3007 RMK AO2 SLP203 T11441178 56017

EXPIRED METARs :
  • 040753Z 21007KT 10SM FEW110 M14/M18 A3007 RMK AO2 SLP207 T11441178
  • 040653Z 21008KT 10SM OVC120 M13/M17 A3009 RMK AO2 SLP211 T11281172
  • 040553Z 25011KT 10SM CLR M13/M17 A3012 RMK AO2 SLP222 T11281167 11117 21150 411111206 58009

TAF KFAR
Valid from the 04 at 06:00 until the 05 at 06:00 UTC


040520Z 0406/0506 24008KT P6SM SKC
FM041200 23010KT P6SM FEW250 WS020/29035KT
FM041800 23015G24KT P6SM SKC WS020/29035KT
FM042200 23012KT P6SM SKC
KZMP FIR / North America



MET'MAP, your aeronautical weather chart ! - Copyright ORBIFLY December 2007 - Disclaimer

ORBIFLY MET'MAP TEAM :

Programming & Development : Alexandra Zaïnal
Original concept : Baudouin d'Aumeries
Technical & hardware support : Manuel Goepfert
Assistance : Marc-Olivier Méhu




SOURCES & CREDITS :

   NOAA       Earth
Advisory